sensor_id;sensor_type;location;lat;lon;timestamp;P1;durP1;ratioP1;P2;durP2;ratioP2
57191;SDS011;43052;52.588;13.396;2023-06-04T00:00:44;8.95;;;6.57;;
57191;SDS011;43052;52.588;13.396;2023-06-04T00:03:10;7.55;;;6.00;;
57191;SDS011;43052;52.588;13.396;2023-06-04T00:05:35;8.23;;;6.05;;
57191;SDS011;43052;52.588;13.396;2023-06-04T00:08:00;7.35;;;5.22;;
57191;SDS011;43052;52.588;13.396;2023-06-04T00:10:25;9.77;;;4.90;;
57191;SDS011;43052;52.588;13.396;2023-06-04T00:12:51;9.88;;;6.13;;
57191;SDS011;43052;52.588;13.396;2023-06-04T00:15:16;7.28;;;5.47;;
57191;SDS011;43052;52.588;13.396;2023-06-04T00:17:42;7.32;;;6.10;;
57191;SDS011;43052;52.588;13.396;2023-06-04T00:20:07;8.60;;;5.35;;
57191;SDS011;43052;52.588;13.396;2023-06-04T00:22:33;6.80;;;4.72;;
57191;SDS011;43052;52.588;13.396;2023-06-04T00:25:11;7.13;;;4.57;;
57191;SDS011;43052;52.588;13.396;2023-06-04T00:27:37;7.15;;;4.50;;
57191;SDS011;43052;52.588;13.396;2023-06-04T00:30:03;7.20;;;4.50;;
57191;SDS011;43052;52.588;13.396;2023-06-04T00:32:29;7.35;;;4.90;;
57191;SDS011;43052;52.588;13.396;2023-06-04T00:34:54;8.15;;;4.95;;
57191;SDS011;43052;52.588;13.396;2023-06-04T00:37:22;7.30;;;4.88;;
57191;SDS011;43052;52.588;13.396;2023-06-04T00:39:48;7.25;;;5.40;;
57191;SDS011;43052;52.588;13.396;2023-06-04T00:42:13;8.13;;;5.65;;
57191;SDS011;43052;52.588;13.396;2023-06-04T00:44:38;8.02;;;5.22;;
57191;SDS011;43052;52.588;13.396;2023-06-04T00:47:08;6.10;;;4.85;;
57191;SDS011;43052;52.588;13.396;2023-06-04T00:49:33;7.70;;;5.38;;
57191;SDS011;43052;52.588;13.396;2023-06-04T00:51:58;6.97;;;4.95;;
57191;SDS011;43052;52.588;13.396;2023-06-04T00:54:24;7.45;;;4.57;;
57191;SDS011;43052;52.588;13.396;2023-06-04T00:56:50;7.10;;;4.80;;
57191;SDS011;43052;52.588;13.396;2023-06-04T00:59:15;5.95;;;4.70;;
57191;SDS011;43052;52.588;13.396;2023-06-04T01:04:21;7.63;;;4.47;;
57191;SDS011;43052;52.588;13.396;2023-06-04T01:06:52;7.70;;;4.88;;
57191;SDS011;43052;52.588;13.396;2023-06-04T01:09:21;5.65;;;4.43;;
57191;SDS011;43052;52.588;13.396;2023-06-04T01:11:46;7.47;;;3.75;;
57191;SDS011;43052;52.588;13.396;2023-06-04T01:14:12;6.90;;;4.60;;
57191;SDS011;43052;52.588;13.396;2023-06-04T01:16:51;9.05;;;4.80;;
57191;SDS011;43052;52.588;13.396;2023-06-04T01:19:33;6.40;;;4.22;;
57191;SDS011;43052;52.588;13.396;2023-06-04T01:22:36;6.05;;;4.35;;
57191;SDS011;43052;52.588;13.396;2023-06-04T01:25:06;5.85;;;4.63;;
57191;SDS011;43052;52.588;13.396;2023-06-04T01:27:48;6.20;;;4.30;;
57191;SDS011;43052;52.588;13.396;2023-06-04T01:30:23;7.05;;;4.70;;
57191;SDS011;43052;52.588;13.396;2023-06-04T01:32:50;6.10;;;4.28;;
57191;SDS011;43052;52.588;13.396;2023-06-04T01:35:15;6.38;;;4.38;;
57191;SDS011;43052;52.588;13.396;2023-06-04T01:37:40;5.75;;;4.38;;
57191;SDS011;43052;52.588;13.396;2023-06-04T01:40:06;5.85;;;4.15;;
57191;SDS011;43052;52.588;13.396;2023-06-04T01:42:33;8.65;;;4.40;;
57191;SDS011;43052;52.588;13.396;2023-06-04T01:44:58;6.53;;;4.55;;
57191;SDS011;43052;52.588;13.396;2023-06-04T01:47:23;6.25;;;4.00;;
57191;SDS011;43052;52.588;13.396;2023-06-04T01:49:48;6.53;;;4.00;;
57191;SDS011;43052;52.588;13.396;2023-06-04T01:52:15;6.70;;;4.50;;
57191;SDS011;43052;52.588;13.396;2023-06-04T01:54:41;7.30;;;4.28;;
57191;SDS011;43052;52.588;13.396;2023-06-04T01:57:07;7.00;;;4.40;;
57191;SDS011;43052;52.588;13.396;2023-06-04T01:59:34;7.63;;;4.32;;
57191;SDS011;43052;52.588;13.396;2023-06-04T02:02:01;5.50;;;4.05;;
57191;SDS011;43052;52.588;13.396;2023-06-04T02:04:26;7.25;;;4.30;;
57191;SDS011;43052;52.588;13.396;2023-06-04T02:06:53;9.02;;;4.50;;
57191;SDS011;43052;52.588;13.396;2023-06-04T02:09:19;6.35;;;4.20;;
57191;SDS011;43052;52.588;13.396;2023-06-04T02:11:44;8.02;;;4.63;;
57191;SDS011;43052;52.588;13.396;2023-06-04T02:14:09;6.32;;;4.35;;
57191;SDS011;43052;52.588;13.396;2023-06-04T02:16:34;9.35;;;4.72;;
57191;SDS011;43052;52.588;13.396;2023-06-04T02:19:00;5.15;;;3.85;;
57191;SDS011;43052;52.588;13.396;2023-06-04T02:21:25;6.63;;;4.22;;
57191;SDS011;43052;52.588;13.396;2023-06-04T02:23:51;7.75;;;4.38;;
57191;SDS011;43052;52.588;13.396;2023-06-04T02:26:16;6.45;;;4.50;;
57191;SDS011;43052;52.588;13.396;2023-06-04T02:28:41;6.90;;;4.70;;
57191;SDS011;43052;52.588;13.396;2023-06-04T02:31:07;8.13;;;4.72;;
57191;SDS011;43052;52.588;13.396;2023-06-04T02:33:33;11.15;;;5.25;;
57191;SDS011;43052;52.588;13.396;2023-06-04T02:35:58;8.50;;;4.97;;
57191;SDS011;43052;52.588;13.396;2023-06-04T02:38:23;8.60;;;4.60;;
57191;SDS011;43052;52.588;13.396;2023-06-04T02:40:48;7.85;;;4.68;;
57191;SDS011;43052;52.588;13.396;2023-06-04T02:43:14;11.10;;;4.65;;
57191;SDS011;43052;52.588;13.396;2023-06-04T02:45:40;7.32;;;4.43;;
57191;SDS011;43052;52.588;13.396;2023-06-04T02:48:05;6.90;;;4.35;;
57191;SDS011;43052;52.588;13.396;2023-06-04T02:50:30;9.57;;;4.70;;
57191;SDS011;43052;52.588;13.396;2023-06-04T02:52:55;9.75;;;4.82;;
57191;SDS011;43052;52.588;13.396;2023-06-04T02:55:21;7.38;;;4.28;;
57191;SDS011;43052;52.588;13.396;2023-06-04T02:57:46;6.03;;;4.47;;
57191;SDS011;43052;52.588;13.396;2023-06-04T03:00:12;7.40;;;4.00;;
57191;SDS011;43052;52.588;13.396;2023-06-04T03:02:42;6.18;;;4.28;;
57191;SDS011;43052;52.588;13.396;2023-06-04T03:05:09;6.70;;;4.30;;
57191;SDS011;43052;52.588;13.396;2023-06-04T03:07:36;8.30;;;4.55;;
57191;SDS011;43052;52.588;13.396;2023-06-04T03:10:03;6.70;;;3.60;;
57191;SDS011;43052;52.588;13.396;2023-06-04T03:12:29;6.95;;;4.13;;
57191;SDS011;43052;52.588;13.396;2023-06-04T03:14:54;5.50;;;3.83;;
57191;SDS011;43052;52.588;13.396;2023-06-04T03:17:20;8.52;;;4.47;;
57191;SDS011;43052;52.588;13.396;2023-06-04T03:19:45;9.57;;;4.28;;
57191;SDS011;43052;52.588;13.396;2023-06-04T03:22:10;8.85;;;4.15;;
57191;SDS011;43052;52.588;13.396;2023-06-04T03:24:36;7.55;;;3.80;;
57191;SDS011;43052;52.588;13.396;2023-06-04T03:27:03;8.15;;;3.60;;
57191;SDS011;43052;52.588;13.396;2023-06-04T03:29:30;7.88;;;3.92;;
57191;SDS011;43052;52.588;13.396;2023-06-04T03:31:56;6.07;;;3.83;;
57191;SDS011;43052;52.588;13.396;2023-06-04T03:34:21;6.78;;;4.00;;
57191;SDS011;43052;52.588;13.396;2023-06-04T03:36:49;8.20;;;3.72;;
57191;SDS011;43052;52.588;13.396;2023-06-04T03:39:21;6.13;;;3.33;;
57191;SDS011;43052;52.588;13.396;2023-06-04T03:41:47;9.63;;;3.90;;
57191;SDS011;43052;52.588;13.396;2023-06-04T03:44:13;5.25;;;3.50;;
57191;SDS011;43052;52.588;13.396;2023-06-04T03:46:42;7.13;;;3.50;;
57191;SDS011;43052;52.588;13.396;2023-06-04T03:49:09;4.60;;;3.50;;
57191;SDS011;43052;52.588;13.396;2023-06-04T03:51:35;9.52;;;3.50;;
57191;SDS011;43052;52.588;13.396;2023-06-04T03:54:01;6.85;;;3.60;;
57191;SDS011;43052;52.588;13.396;2023-06-04T03:56:27;5.85;;;3.38;;
57191;SDS011;43052;52.588;13.396;2023-06-04T03:58:53;5.85;;;3.20;;
57191;SDS011;43052;52.588;13.396;2023-06-04T04:01:18;5.50;;;3.35;;
57191;SDS011;43052;52.588;13.396;2023-06-04T04:03:44;5.95;;;3.45;;
57191;SDS011;43052;52.588;13.396;2023-06-04T04:06:13;6.80;;;3.22;;
57191;SDS011;43052;52.588;13.396;2023-06-04T04:08:39;5.82;;;3.10;;
57191;SDS011;43052;52.588;13.396;2023-06-04T04:11:07;6.90;;;3.45;;
57191;SDS011;43052;52.588;13.396;2023-06-04T04:13:36;6.80;;;3.03;;
57191;SDS011;43052;52.588;13.396;2023-06-04T04:16:01;5.35;;;2.63;;
57191;SDS011;43052;52.588;13.396;2023-06-04T04:18:27;4.10;;;2.70;;
57191;SDS011;43052;52.588;13.396;2023-06-04T04:20:52;4.72;;;2.97;;
57191;SDS011;43052;52.588;13.396;2023-06-04T04:23:17;8.05;;;2.58;;
57191;SDS011;43052;52.588;13.396;2023-06-04T04:25:43;7.55;;;2.88;;
57191;SDS011;43052;52.588;13.396;2023-06-04T04:28:13;5.38;;;2.60;;
57191;SDS011;43052;52.588;13.396;2023-06-04T04:30:40;4.57;;;2.53;;
57191;SDS011;43052;52.588;13.396;2023-06-04T04:33:06;4.53;;;2.50;;
57191;SDS011;43052;52.588;13.396;2023-06-04T04:35:31;3.40;;;2.47;;
57191;SDS011;43052;52.588;13.396;2023-06-04T04:38:00;4.95;;;2.53;;
57191;SDS011;43052;52.588;13.396;2023-06-04T04:40:29;3.88;;;2.40;;
57191;SDS011;43052;52.588;13.396;2023-06-04T04:42:55;3.85;;;2.13;;
57191;SDS011;43052;52.588;13.396;2023-06-04T04:45:20;4.10;;;2.40;;
57191;SDS011;43052;52.588;13.396;2023-06-04T04:47:46;5.68;;;2.38;;
57191;SDS011;43052;52.588;13.396;2023-06-04T04:50:12;3.63;;;2.30;;
57191;SDS011;43052;52.588;13.396;2023-06-04T04:52:37;4.70;;;2.60;;
57191;SDS011;43052;52.588;13.396;2023-06-04T04:55:03;3.17;;;1.95;;
57191;SDS011;43052;52.588;13.396;2023-06-04T04:57:29;2.97;;;2.00;;
57191;SDS011;43052;52.588;13.396;2023-06-04T04:59:54;3.42;;;2.20;;
57191;SDS011;43052;52.588;13.396;2023-06-04T05:02:19;6.18;;;2.53;;
57191;SDS011;43052;52.588;13.396;2023-06-04T05:04:45;2.92;;;2.13;;
57191;SDS011;43052;52.588;13.396;2023-06-04T05:07:10;3.78;;;2.20;;
57191;SDS011;43052;52.588;13.396;2023-06-04T05:09:35;3.95;;;2.13;;
57191;SDS011;43052;52.588;13.396;2023-06-04T05:12:00;3.95;;;2.00;;
57191;SDS011;43052;52.588;13.396;2023-06-04T05:14:26;4.72;;;2.20;;
57191;SDS011;43052;52.588;13.396;2023-06-04T05:16:52;4.60;;;2.40;;
57191;SDS011;43052;52.588;13.396;2023-06-04T05:19:17;4.97;;;2.30;;
57191;SDS011;43052;52.588;13.396;2023-06-04T05:21:42;5.35;;;2.50;;
57191;SDS011;43052;52.588;13.396;2023-06-04T05:24:08;5.82;;;2.45;;
57191;SDS011;43052;52.588;13.396;2023-06-04T05:26:34;3.60;;;2.25;;
57191;SDS011;43052;52.588;13.396;2023-06-04T05:29:00;3.33;;;2.20;;
57191;SDS011;43052;52.588;13.396;2023-06-04T05:31:26;4.07;;;2.47;;
57191;SDS011;43052;52.588;13.396;2023-06-04T05:33:51;2.38;;;1.88;;
57191;SDS011;43052;52.588;13.396;2023-06-04T05:36:17;3.88;;;2.28;;
57191;SDS011;43052;52.588;13.396;2023-06-04T05:38:42;3.55;;;2.17;;
57191;SDS011;43052;52.588;13.396;2023-06-04T05:41:07;3.80;;;2.17;;
57191;SDS011;43052;52.588;13.396;2023-06-04T05:43:33;2.22;;;1.92;;
57191;SDS011;43052;52.588;13.396;2023-06-04T05:45:58;2.43;;;1.80;;
57191;SDS011;43052;52.588;13.396;2023-06-04T05:48:23;2.75;;;1.90;;
57191;SDS011;43052;52.588;13.396;2023-06-04T05:50:49;3.20;;;2.00;;
57191;SDS011;43052;52.588;13.396;2023-06-04T05:53:15;3.97;;;2.10;;
57191;SDS011;43052;52.588;13.396;2023-06-04T05:55:41;3.35;;;1.80;;
57191;SDS011;43052;52.588;13.396;2023-06-04T05:58:06;3.25;;;2.03;;
57191;SDS011;43052;52.588;13.396;2023-06-04T06:00:31;3.90;;;2.20;;
57191;SDS011;43052;52.588;13.396;2023-06-04T06:02:56;2.80;;;1.90;;
57191;SDS011;43052;52.588;13.396;2023-06-04T06:05:22;2.33;;;2.03;;
57191;SDS011;43052;52.588;13.396;2023-06-04T06:07:47;5.45;;;1.98;;
57191;SDS011;43052;52.588;13.396;2023-06-04T06:10:12;3.63;;;2.10;;
57191;SDS011;43052;52.588;13.396;2023-06-04T06:12:38;4.53;;;2.10;;
57191;SDS011;43052;52.588;13.396;2023-06-04T06:15:04;3.80;;;1.83;;
57191;SDS011;43052;52.588;13.396;2023-06-04T06:17:30;4.05;;;1.90;;
57191;SDS011;43052;52.588;13.396;2023-06-04T06:19:55;4.03;;;2.08;;
57191;SDS011;43052;52.588;13.396;2023-06-04T06:22:21;4.13;;;1.90;;
57191;SDS011;43052;52.588;13.396;2023-06-04T06:24:46;4.13;;;2.30;;
57191;SDS011;43052;52.588;13.396;2023-06-04T06:27:13;2.67;;;1.85;;
57191;SDS011;43052;52.588;13.396;2023-06-04T06:29:40;3.28;;;2.17;;
57191;SDS011;43052;52.588;13.396;2023-06-04T06:32:05;3.40;;;2.10;;
57191;SDS011;43052;52.588;13.396;2023-06-04T06:34:31;3.90;;;2.07;;
57191;SDS011;43052;52.588;13.396;2023-06-04T06:36:56;3.22;;;2.10;;
57191;SDS011;43052;52.588;13.396;2023-06-04T06:39:22;4.72;;;1.90;;
57191;SDS011;43052;52.588;13.396;2023-06-04T06:41:47;1.67;;;1.57;;
57191;SDS011;43052;52.588;13.396;2023-06-04T06:44:12;1.70;;;1.50;;
57191;SDS011;43052;52.588;13.396;2023-06-04T06:46:37;3.67;;;1.70;;
57191;SDS011;43052;52.588;13.396;2023-06-04T06:49:03;1.93;;;1.60;;
57191;SDS011;43052;52.588;13.396;2023-06-04T06:51:28;5.32;;;1.90;;
57191;SDS011;43052;52.588;13.396;2023-06-04T06:53:53;2.80;;;1.80;;
57191;SDS011;43052;52.588;13.396;2023-06-04T06:56:19;1.58;;;1.33;;
57191;SDS011;43052;52.588;13.396;2023-06-04T06:58:45;2.17;;;1.85;;
57191;SDS011;43052;52.588;13.396;2023-06-04T07:01:10;2.45;;;1.60;;
57191;SDS011;43052;52.588;13.396;2023-06-04T07:03:36;3.42;;;1.60;;
57191;SDS011;43052;52.588;13.396;2023-06-04T07:06:03;2.88;;;1.52;;
57191;SDS011;43052;52.588;13.396;2023-06-04T07:08:28;2.17;;;1.42;;
57191;SDS011;43052;52.588;13.396;2023-06-04T07:10:54;2.22;;;1.30;;
57191;SDS011;43052;52.588;13.396;2023-06-04T07:13:19;2.45;;;1.30;;
57191;SDS011;43052;52.588;13.396;2023-06-04T07:15:44;2.47;;;1.30;;
57191;SDS011;43052;52.588;13.396;2023-06-04T07:18:10;1.77;;;1.40;;
57191;SDS011;43052;52.588;13.396;2023-06-04T07:20:35;2.60;;;1.40;;
57191;SDS011;43052;52.588;13.396;2023-06-04T07:23:00;3.28;;;1.30;;
57191;SDS011;43052;52.588;13.396;2023-06-04T07:25:26;1.90;;;1.30;;
57191;SDS011;43052;52.588;13.396;2023-06-04T07:27:51;1.83;;;1.23;;
57191;SDS011;43052;52.588;13.396;2023-06-04T07:30:16;1.58;;;1.20;;
57191;SDS011;43052;52.588;13.396;2023-06-04T07:32:45;2.63;;;1.50;;
57191;SDS011;43052;52.588;13.396;2023-06-04T07:35:12;1.38;;;1.27;;
57191;SDS011;43052;52.588;13.396;2023-06-04T07:37:37;2.20;;;1.20;;
57191;SDS011;43052;52.588;13.396;2023-06-04T07:40:03;2.63;;;1.40;;
57191;SDS011;43052;52.588;13.396;2023-06-04T07:42:29;2.63;;;1.52;;
57191;SDS011;43052;52.588;13.396;2023-06-04T07:44:54;1.50;;;1.40;;
57191;SDS011;43052;52.588;13.396;2023-06-04T07:47:19;2.40;;;1.35;;
57191;SDS011;43052;52.588;13.396;2023-06-04T07:49:45;2.78;;;1.40;;
57191;SDS011;43052;52.588;13.396;2023-06-04T07:52:10;2.73;;;1.40;;
57191;SDS011;43052;52.588;13.396;2023-06-04T07:54:36;1.58;;;1.48;;
57191;SDS011;43052;52.588;13.396;2023-06-04T07:57:02;2.30;;;1.45;;
57191;SDS011;43052;52.588;13.396;2023-06-04T07:59:28;2.60;;;1.40;;
57191;SDS011;43052;52.588;13.396;2023-06-04T08:01:54;1.40;;;1.30;;
57191;SDS011;43052;52.588;13.396;2023-06-04T08:04:19;2.65;;;1.40;;
57191;SDS011;43052;52.588;13.396;2023-06-04T08:06:45;2.07;;;1.47;;
57191;SDS011;43052;52.588;13.396;2023-06-04T08:09:11;2.58;;;1.38;;
57191;SDS011;43052;52.588;13.396;2023-06-04T08:11:36;3.00;;;1.42;;
57191;SDS011;43052;52.588;13.396;2023-06-04T08:14:02;2.38;;;1.50;;
57191;SDS011;43052;52.588;13.396;2023-06-04T08:16:28;2.50;;;1.35;;
57191;SDS011;43052;52.588;13.396;2023-06-04T08:18:53;1.50;;;1.40;;
57191;SDS011;43052;52.588;13.396;2023-06-04T08:21:25;1.85;;;1.35;;
57191;SDS011;43052;52.588;13.396;2023-06-04T08:23:54;1.52;;;1.42;;
57191;SDS011;43052;52.588;13.396;2023-06-04T08:26:20;3.65;;;2.97;;
57191;SDS011;43052;52.588;13.396;2023-06-04T08:28:48;2.17;;;1.40;;
57191;SDS011;43052;52.588;13.396;2023-06-04T08:31:14;2.30;;;1.65;;
57191;SDS011;43052;52.588;13.396;2023-06-04T08:33:40;1.98;;;1.30;;
57191;SDS011;43052;52.588;13.396;2023-06-04T08:36:06;1.48;;;1.38;;
57191;SDS011;43052;52.588;13.396;2023-06-04T08:38:31;3.13;;;1.42;;
57191;SDS011;43052;52.588;13.396;2023-06-04T08:40:57;1.70;;;1.57;;
57191;SDS011;43052;52.588;13.396;2023-06-04T08:43:37;2.42;;;1.40;;
57191;SDS011;43052;52.588;13.396;2023-06-04T08:46:04;2.28;;;1.40;;
57191;SDS011;43052;52.588;13.396;2023-06-04T08:51:53;1.88;;;1.50;;
57191;SDS011;43052;52.588;13.396;2023-06-04T08:57:43;3.53;;;1.60;;
57191;SDS011;43052;52.588;13.396;2023-06-04T09:02:49;4.53;;;1.50;;
57191;SDS011;43052;52.588;13.396;2023-06-04T09:05:19;2.63;;;1.42;;
57191;SDS011;43052;52.588;13.396;2023-06-04T09:07:46;1.95;;;1.50;;
57191;SDS011;43052;52.588;13.396;2023-06-04T09:10:13;2.45;;;1.33;;
57191;SDS011;43052;52.588;13.396;2023-06-04T09:12:42;2.35;;;1.48;;
57191;SDS011;43052;52.588;13.396;2023-06-04T09:15:11;2.60;;;1.50;;
57191;SDS011;43052;52.588;13.396;2023-06-04T09:17:36;2.13;;;1.42;;
57191;SDS011;43052;52.588;13.396;2023-06-04T09:20:01;2.33;;;1.70;;
57191;SDS011;43052;52.588;13.396;2023-06-04T09:22:31;3.78;;;2.25;;
57191;SDS011;43052;52.588;13.396;2023-06-04T09:24:58;5.53;;;1.70;;
57191;SDS011;43052;52.588;13.396;2023-06-04T09:27:23;1.50;;;1.40;;
57191;SDS011;43052;52.588;13.396;2023-06-04T09:29:54;2.00;;;1.52;;
57191;SDS011;43052;52.588;13.396;2023-06-04T09:32:24;2.50;;;1.45;;
57191;SDS011;43052;52.588;13.396;2023-06-04T09:34:54;2.37;;;1.47;;
57191;SDS011;43052;52.588;13.396;2023-06-04T09:37:22;2.63;;;1.95;;
57191;SDS011;43052;52.588;13.396;2023-06-04T09:39:54;1.60;;;1.50;;
57191;SDS011;43052;52.588;13.396;2023-06-04T09:42:22;1.80;;;1.70;;
57191;SDS011;43052;52.588;13.396;2023-06-04T09:44:48;2.25;;;1.75;;
57191;SDS011;43052;52.588;13.396;2023-06-04T09:47:13;1.55;;;1.40;;
57191;SDS011;43052;52.588;13.396;2023-06-04T09:49:46;1.60;;;1.50;;
57191;SDS011;43052;52.588;13.396;2023-06-04T09:52:12;1.87;;;1.27;;
57191;SDS011;43052;52.588;13.396;2023-06-04T09:54:38;1.40;;;1.30;;
57191;SDS011;43052;52.588;13.396;2023-06-04T09:57:13;1.50;;;1.40;;
57191;SDS011;43052;52.588;13.396;2023-06-04T09:59:45;1.88;;;1.67;;
57191;SDS011;43052;52.588;13.396;2023-06-04T10:02:13;1.88;;;1.30;;
57191;SDS011;43052;52.588;13.396;2023-06-04T10:04:44;1.92;;;1.40;;
57191;SDS011;43052;52.588;13.396;2023-06-04T10:07:14;4.47;;;1.70;;
57191;SDS011;43052;52.588;13.396;2023-06-04T10:09:41;2.50;;;1.40;;
57191;SDS011;43052;52.588;13.396;2023-06-04T10:12:14;1.80;;;1.70;;
57191;SDS011;43052;52.588;13.396;2023-06-04T10:14:51;3.33;;;1.65;;
57191;SDS011;43052;52.588;13.396;2023-06-04T10:17:17;1.65;;;1.55;;
57191;SDS011;43052;52.588;13.396;2023-06-04T10:19:47;1.98;;;1.50;;
57191;SDS011;43052;52.588;13.396;2023-06-04T10:22:14;1.67;;;1.58;;
57191;SDS011;43052;52.588;13.396;2023-06-04T10:24:39;1.48;;;1.38;;
57191;SDS011;43052;52.588;13.396;2023-06-04T10:27:05;2.97;;;1.80;;
57191;SDS011;43052;52.588;13.396;2023-06-04T10:29:36;2.05;;;1.60;;
57191;SDS011;43052;52.588;13.396;2023-06-04T10:35:32;1.67;;;1.50;;
57191;SDS011;43052;52.588;13.396;2023-06-04T10:38:10;1.40;;;1.30;;
57191;SDS011;43052;52.588;13.396;2023-06-04T10:40:38;2.35;;;1.30;;
57191;SDS011;43052;52.588;13.396;2023-06-04T10:43:07;3.17;;;1.30;;
57191;SDS011;43052;52.588;13.396;2023-06-04T10:45:34;1.25;;;1.08;;
57191;SDS011;43052;52.588;13.396;2023-06-04T10:48:00;1.88;;;1.10;;
57191;SDS011;43052;52.588;13.396;2023-06-04T10:53:17;2.55;;;1.30;;
57191;SDS011;43052;52.588;13.396;2023-06-04T10:55:47;1.70;;;1.10;;
57191;SDS011;43052;52.588;13.396;2023-06-04T10:58:13;1.50;;;1.40;;
57191;SDS011;43052;52.588;13.396;2023-06-04T11:00:39;1.20;;;1.10;;
57191;SDS011;43052;52.588;13.396;2023-06-04T11:03:07;1.73;;;1.13;;
57191;SDS011;43052;52.588;13.396;2023-06-04T11:05:39;1.65;;;1.15;;
57191;SDS011;43052;52.588;13.396;2023-06-04T11:08:09;1.75;;;1.20;;
57191;SDS011;43052;52.588;13.396;2023-06-04T11:10:37;3.15;;;1.80;;
57191;SDS011;43052;52.588;13.396;2023-06-04T11:13:04;2.53;;;1.75;;
57191;SDS011;43052;52.588;13.396;2023-06-04T11:21:09;1.30;;;1.20;;
57191;SDS011;43052;52.588;13.396;2023-06-04T11:23:39;3.50;;;1.30;;
57191;SDS011;43052;52.588;13.396;2023-06-04T11:26:05;2.88;;;1.30;;
57191;SDS011;43052;52.588;13.396;2023-06-04T11:28:31;2.45;;;1.20;;
57191;SDS011;43052;52.588;13.396;2023-06-04T11:30:57;2.28;;;1.30;;
57191;SDS011;43052;52.588;13.396;2023-06-04T11:33:23;2.90;;;1.30;;
57191;SDS011;43052;52.588;13.396;2023-06-04T11:35:49;2.33;;;1.60;;
57191;SDS011;43052;52.588;13.396;2023-06-04T11:38:14;2.38;;;1.20;;
57191;SDS011;43052;52.588;13.396;2023-06-04T11:40:39;1.45;;;1.10;;
57191;SDS011;43052;52.588;13.396;2023-06-04T11:43:05;1.35;;;1.00;;
57191;SDS011;43052;52.588;13.396;2023-06-04T11:45:30;2.63;;;1.40;;
57191;SDS011;43052;52.588;13.396;2023-06-04T11:47:56;2.20;;;1.40;;
57191;SDS011;43052;52.588;13.396;2023-06-04T11:50:22;3.03;;;1.80;;
57191;SDS011;43052;52.588;13.396;2023-06-04T11:52:52;3.88;;;1.30;;
57191;SDS011;43052;52.588;13.396;2023-06-04T11:55:18;2.67;;;1.27;;
57191;SDS011;43052;52.588;13.396;2023-06-04T11:57:46;2.58;;;1.30;;
57191;SDS011;43052;52.588;13.396;2023-06-04T12:00:13;2.75;;;1.38;;
57191;SDS011;43052;52.588;13.396;2023-06-04T12:02:48;2.45;;;1.40;;
57191;SDS011;43052;52.588;13.396;2023-06-04T12:05:21;3.33;;;1.50;;
57191;SDS011;43052;52.588;13.396;2023-06-04T12:08:03;2.75;;;1.20;;
57191;SDS011;43052;52.588;13.396;2023-06-04T12:10:30;1.27;;;1.15;;
57191;SDS011;43052;52.588;13.396;2023-06-04T12:13:05;2.97;;;1.27;;
57191;SDS011;43052;52.588;13.396;2023-06-04T12:15:30;2.47;;;1.60;;
57191;SDS011;43052;52.588;13.396;2023-06-04T12:17:56;2.45;;;1.30;;
57191;SDS011;43052;52.588;13.396;2023-06-04T12:20:35;1.58;;;1.40;;
57191;SDS011;43052;52.588;13.396;2023-06-04T12:23:05;2.83;;;1.38;;
57191;SDS011;43052;52.588;13.396;2023-06-04T12:25:31;2.50;;;1.40;;
57191;SDS011;43052;52.588;13.396;2023-06-04T12:27:57;4.03;;;1.23;;
57191;SDS011;43052;52.588;13.396;2023-06-04T12:30:22;2.03;;;1.20;;
57191;SDS011;43052;52.588;13.396;2023-06-04T12:32:48;2.35;;;1.40;;
57191;SDS011;43052;52.588;13.396;2023-06-04T12:35:13;1.48;;;1.10;;
57191;SDS011;43052;52.588;13.396;2023-06-04T12:37:40;1.83;;;1.30;;
57191;SDS011;43052;52.588;13.396;2023-06-04T12:40:06;1.75;;;1.35;;
57191;SDS011;43052;52.588;13.396;2023-06-04T12:42:32;2.10;;;1.20;;
57191;SDS011;43052;52.588;13.396;2023-06-04T12:44:57;2.55;;;1.35;;
57191;SDS011;43052;52.588;13.396;2023-06-04T12:47:22;4.43;;;1.40;;
57191;SDS011;43052;52.588;13.396;2023-06-04T12:49:48;2.63;;;1.40;;
57191;SDS011;43052;52.588;13.396;2023-06-04T12:52:13;1.48;;;1.20;;
57191;SDS011;43052;52.588;13.396;2023-06-04T12:54:39;3.20;;;1.30;;
57191;SDS011;43052;52.588;13.396;2023-06-04T12:57:04;3.20;;;1.30;;
57191;SDS011;43052;52.588;13.396;2023-06-04T12:59:30;2.90;;;1.50;;
57191;SDS011;43052;52.588;13.396;2023-06-04T13:01:55;2.63;;;1.40;;
57191;SDS011;43052;52.588;13.396;2023-06-04T13:04:21;2.42;;;1.20;;
57191;SDS011;43052;52.588;13.396;2023-06-04T13:06:48;1.90;;;1.25;;
57191;SDS011;43052;52.588;13.396;2023-06-04T13:09:14;3.58;;;1.48;;
57191;SDS011;43052;52.588;13.396;2023-06-04T13:11:43;1.35;;;1.10;;
57191;SDS011;43052;52.588;13.396;2023-06-04T13:14:09;3.88;;;1.50;;
57191;SDS011;43052;52.588;13.396;2023-06-04T13:16:35;3.97;;;1.40;;
57191;SDS011;43052;52.588;13.396;2023-06-04T13:19:00;1.98;;;1.30;;
57191;SDS011;43052;52.588;13.396;2023-06-04T13:21:26;2.42;;;1.35;;
57191;SDS011;43052;52.588;13.396;2023-06-04T13:23:51;2.00;;;1.48;;
57191;SDS011;43052;52.588;13.396;2023-06-04T13:26:20;4.28;;;1.40;;
57191;SDS011;43052;52.588;13.396;2023-06-04T13:28:46;2.22;;;1.30;;
57191;SDS011;43052;52.588;13.396;2023-06-04T13:31:12;1.35;;;1.15;;
57191;SDS011;43052;52.588;13.396;2023-06-04T13:33:37;2.78;;;1.40;;
57191;SDS011;43052;52.588;13.396;2023-06-04T13:36:03;1.67;;;1.33;;
57191;SDS011;43052;52.588;13.396;2023-06-04T13:38:28;2.92;;;1.38;;
57191;SDS011;43052;52.588;13.396;2023-06-04T13:40:54;1.40;;;1.30;;
57191;SDS011;43052;52.588;13.396;2023-06-04T13:43:19;2.72;;;1.30;;
57191;SDS011;43052;52.588;13.396;2023-06-04T13:45:45;2.22;;;1.40;;
57191;SDS011;43052;52.588;13.396;2023-06-04T13:48:11;1.55;;;1.23;;
57191;SDS011;43052;52.588;13.396;2023-06-04T13:50:36;2.35;;;1.60;;
57191;SDS011;43052;52.588;13.396;2023-06-04T13:53:02;1.95;;;1.38;;
57191;SDS011;43052;52.588;13.396;2023-06-04T13:55:27;2.05;;;1.25;;
57191;SDS011;43052;52.588;13.396;2023-06-04T13:57:58;3.50;;;1.42;;
57191;SDS011;43052;52.588;13.396;2023-06-04T14:00:23;2.42;;;1.23;;
57191;SDS011;43052;52.588;13.396;2023-06-04T14:02:49;2.58;;;1.50;;
57191;SDS011;43052;52.588;13.396;2023-06-04T14:05:14;1.92;;;1.42;;
57191;SDS011;43052;52.588;13.396;2023-06-04T14:07:43;2.05;;;1.20;;
57191;SDS011;43052;52.588;13.396;2023-06-04T14:10:09;5.72;;;1.35;;
57191;SDS011;43052;52.588;13.396;2023-06-04T14:12:37;5.63;;;2.83;;
57191;SDS011;43052;52.588;13.396;2023-06-04T14:15:04;2.08;;;1.50;;
57191;SDS011;43052;52.588;13.396;2023-06-04T14:17:30;2.83;;;1.50;;
57191;SDS011;43052;52.588;13.396;2023-06-04T14:19:55;1.65;;;1.30;;
57191;SDS011;43052;52.588;13.396;2023-06-04T14:22:29;1.92;;;1.30;;
57191;SDS011;43052;52.588;13.396;2023-06-04T14:24:54;3.53;;;1.42;;
57191;SDS011;43052;52.588;13.396;2023-06-04T14:27:19;1.42;;;1.30;;
57191;SDS011;43052;52.588;13.396;2023-06-04T14:29:45;2.45;;;1.40;;
57191;SDS011;43052;52.588;13.396;2023-06-04T14:32:10;3.30;;;1.50;;
57191;SDS011;43052;52.588;13.396;2023-06-04T14:34:35;3.25;;;1.80;;
57191;SDS011;43052;52.588;13.396;2023-06-04T14:37:02;2.10;;;1.30;;
57191;SDS011;43052;52.588;13.396;2023-06-04T14:39:27;2.45;;;1.30;;
57191;SDS011;43052;52.588;13.396;2023-06-04T14:41:52;2.20;;;1.40;;
57191;SDS011;43052;52.588;13.396;2023-06-04T14:44:18;2.08;;;1.52;;
57191;SDS011;43052;52.588;13.396;2023-06-04T14:46:43;1.98;;;1.40;;
57191;SDS011;43052;52.588;13.396;2023-06-04T14:49:09;3.45;;;1.38;;
57191;SDS011;43052;52.588;13.396;2023-06-04T14:51:43;2.45;;;1.30;;
57191;SDS011;43052;52.588;13.396;2023-06-04T14:54:08;1.90;;;1.40;;